Time;durP1;ratioP1;P1;durP2;ratioP2;P2;SDS_P1;SDS_P2;PMS_P1;PMS_P2;Temp;Humidity;BMP_temperature;BMP_pressure;BME280_temperature;BME280_humidity;BME280_pressure;Samples;Min_cycle;Max_cycle;Signal;HPM_P1;HPM_P2
2023/12/20 00:02:25;;;;;;;0.00;0.00;;;;;;;3.28;100.00;101063.09;4860951;29;20044;-79
2023/12/20 00:05:03;;;;;;;0.00;0.00;;;;;;;3.46;100.00;101116.59;4877112;29;20038;-80
2023/12/20 00:07:41;;;;;;;0.00;0.00;;;;;;;3.27;100.00;101097.41;4880843;29;20036;-79
2023/12/20 00:10:13;;;;;;;0.03;0.03;;;;;;;3.52;100.00;101140.16;4880601;29;20128;-78
2023/12/20 00:12:41;;;;;;;0.00;0.00;;;;;;;3.39;100.00;101131.97;4866171;29;20555;-78
2023/12/20 00:15:40;;;;;;;0.10;0.10;;;;;;;3.10;100.00;101098.78;4871912;29;20038;-81
2023/12/20 00:18:17;;;;;;;0.00;0.00;;;;;;;3.15;100.00;101112.53;4867785;29;20062;-77
2023/12/20 00:21:06;;;;;;;0.00;0.00;;;;;;;3.43;100.00;101133.22;4870089;29;20038;-79
2023/12/20 00:23:31;;;;;;;0.00;0.00;;;;;;;3.31;100.00;101106.78;4863796;29;20037;-78
2023/12/20 00:25:57;;;;;;;0.00;0.00;;;;;;;3.29;100.00;101098.03;4872836;29;20039;-78
2023/12/20 00:28:40;;;;;;;0.00;0.00;;;;;;;3.31;100.00;101098.69;4862174;29;20378;-77
2023/12/20 00:31:05;;;;;;;0.00;0.00;;;;;;;3.30;100.00;101099.72;4868673;29;20029;-77
2023/12/20 00:33:43;;;;;;;0.10;0.10;;;;;;;3.27;100.00;101073.09;4876380;29;20503;-77
2023/12/20 00:36:21;;;;;;;0.10;0.10;;;;;;;3.17;100.00;101050.16;4867303;29;20053;-77
2023/12/20 00:38:48;;;;;;;0.00;0.00;;;;;;;3.27;100.00;101067.69;4883132;29;20029;-77
2023/12/20 00:41:13;;;;;;;0.10;0.10;;;;;;;3.46;100.00;101092.25;4872893;29;20088;-78
2023/12/20 00:43:41;;;;;;;0.00;0.00;;;;;;;3.46;100.00;101103.94;4857357;29;20032;-77
2023/12/20 00:46:09;;;;;;;0.00;0.00;;;;;;;3.44;100.00;101097.88;4873174;29;20080;-77
2023/12/20 00:48:34;;;;;;;0.10;0.10;;;;;;;3.39;100.00;101086.00;4882838;29;20017;-77
2023/12/20 00:55:21;;;;;;;0.10;0.10;;;;;;;3.39;100.00;101064.38;4831352;29;20058;-77
2023/12/20 00:57:47;;;;;;;0.00;0.00;;;;;;;3.66;100.00;101097.75;4840860;29;20249;-76
2023/12/20 01:00:13;;;;;;;0.00;0.00;;;;;;;3.61;100.00;101074.03;4833124;29;20129;-76
2023/12/20 01:02:49;;;;;;;0.00;0.00;;;;;;;3.77;100.00;101088.22;4846550;29;20034;-77
2023/12/20 01:05:14;;;;;;;0.10;0.10;;;;;;;3.79;100.00;101059.91;4872919;29;20036;-75
2023/12/20 01:07:39;;;;;;;0.00;0.00;;;;;;;4.05;100.00;101065.56;4869059;29;20038;-76
2023/12/20 01:10:12;;;;;;;0.00;0.00;;;;;;;4.12;100.00;101058.28;4854161;29;20033;-77
2023/12/20 01:12:45;;;;;;;0.00;0.00;;;;;;;4.21;100.00;101045.38;4871050;29;20044;-76
2023/12/20 01:15:11;;;;;;;0.00;0.00;;;;;;;4.19;100.00;101032.03;4871030;29;20395;-76
2023/12/20 01:17:44;;;;;;;0.00;0.00;;;;;;;4.54;100.00;101077.84;4861437;29;20022;-76
2023/12/20 01:20:30;;;;;;;0.00;0.00;;;;;;;4.63;100.00;101082.00;4854614;29;20029;-77
2023/12/20 01:22:58;;;;;;;0.00;0.00;;;;;;;4.52;100.00;101060.97;4869920;29;20037;-77
2023/12/20 01:25:23;;;;;;;0.00;0.00;;;;;;;4.37;100.00;101023.28;4856653;29;20029;-77
2023/12/20 01:27:49;;;;;;;0.00;0.00;;;;;;;4.67;100.00;101058.88;4866703;29;20045;-76
2023/12/20 01:30:15;;;;;;;0.00;0.00;;;;;;;4.61;100.00;101051.56;4859773;29;20238;-77
2023/12/20 01:32:40;;;;;;;0.00;0.00;;;;;;;4.91;100.00;101067.38;4859890;29;20044;-77
2023/12/20 01:35:16;;;;;;;0.00;0.00;;;;;;;4.98;100.00;101083.59;4873143;29;20453;-78
2023/12/20 01:37:59;;;;;;;0.00;0.00;;;;;;;4.69;100.00;101031.56;4878071;29;20081;-77
2023/12/20 01:40:25;;;;;;;0.00;0.00;;;;;;;4.66;100.00;101042.84;4869200;29;20025;-77
2023/12/20 01:43:06;;;;;;;0.00;0.00;;;;;;;4.84;100.00;101066.53;4867145;29;20037;-77
2023/12/20 01:45:52;;;;;;;0.00;0.00;;;;;;;4.67;100.00;101039.06;4865920;29;20040;-77
2023/12/20 01:49:01;;;;;;;0.00;0.00;;;;;;;5.02;100.00;101091.13;4881487;29;20178;-77
2023/12/20 01:51:27;;;;;;;0.00;0.00;;;;;;;4.76;100.00;101053.22;4864817;29;20033;-76
2023/12/20 01:53:59;;;;;;;0.00;0.00;;;;;;;5.04;100.00;101083.59;4863108;29;20053;-76
2023/12/20 01:56:33;;;;;;;0.00;0.00;;;;;;;4.88;100.00;101062.38;4874349;29;20029;-76
2023/12/20 01:59:04;;;;;;;0.00;0.00;;;;;;;4.72;100.00;101037.38;4867442;29;20415;-77
2023/12/20 02:01:41;;;;;;;0.00;0.00;;;;;;;4.99;100.00;101067.13;4864916;29;20391;-76
2023/12/20 02:04:27;;;;;;;0.00;0.00;;;;;;;4.76;100.00;101020.69;4868116;29;20037;-76
2023/12/20 02:06:53;;;;;;;0.00;0.00;;;;;;;4.75;100.00;101002.81;4873223;29;20042;-76
2023/12/20 02:09:29;;;;;;;;;;;;;;;;;;;;;
2023/12/20 02:12:05;;;;;;;;;;;;;;;;;;;;;
2023/12/20 02:14:30;;;;;;;0.00;0.00;;;;;;;5.21;100.00;101074.97;4862834;29;20609;-77
2023/12/20 02:16:59;;;;;;;0.00;0.00;;;;;;;5.12;100.00;101058.09;4863494;29;20033;-77
2023/12/20 02:19:56;;;;;;;0.10;0.10;;;;;;;5.35;100.00;101079.28;4869943;29;20100;-78
2023/12/20 02:22:22;;;;;;;0.10;0.10;;;;;;;5.13;100.00;101043.50;4880319;29;20046;-78
2023/12/20 02:24:47;;;;;;;0.03;0.03;;;;;;;4.96;100.00;101013.34;4876991;29;20495;-78
2023/12/20 02:27:21;;;;;;;0.00;0.00;;;;;;;5.30;100.00;101060.16;4852626;29;20041;-78
2023/12/20 02:29:52;;;;;;;0.10;0.10;;;;;;;5.10;100.00;101024.16;4883623;29;20036;-77
2023/12/20 02:37:24;;;;;;;;;;;;;;;;;;;;;
2023/12/20 02:39:26;;;;;;;0.00;0.00;;;;;;;5.27;100.00;101044.31;4859494;29;20037;-78
2023/12/20 02:41:54;;;;;;;0.08;0.08;;;;;;;5.36;100.00;101058.41;4879502;29;20120;-76
2023/12/20 02:44:19;;;;;;;0.10;0.10;;;;;;;5.46;100.00;101066.97;4856641;29;20032;-76
2023/12/20 02:46:45;;;;;;;0.00;0.00;;;;;;;5.37;100.00;101044.69;4850623;29;20047;-77
2023/12/20 02:49:18;;;;;;;0.00;0.00;;;;;;;5.53;100.00;101064.19;4871264;29;20065;-77
2023/12/20 02:51:52;;;;;;;0.00;0.00;;;;;;;5.53;100.00;101069.63;4867879;29;20036;-78
2023/12/20 02:54:20;;;;;;;0.10;0.10;;;;;;;5.64;100.00;101065.41;4861156;29;20073;-77
2023/12/20 02:56:46;;;;;;;0.00;0.00;;;;;;;5.38;100.00;101024.63;4872351;29;21294;-77
2023/12/20 02:59:13;;;;;;;0.00;0.00;;;;;;;5.54;100.00;101036.03;4864872;29;20119;-76
2023/12/20 03:01:47;;;;;;;0.00;0.00;;;;;;;5.48;100.00;101039.63;4873624;29;20037;-78
2023/12/20 03:04:12;;;;;;;0.10;0.10;;;;;;;5.62;100.00;101057.44;4877229;29;20057;-78
2023/12/20 03:06:40;;;;;;;0.10;0.10;;;;;;;5.46;100.00;101025.41;4874119;29;20124;-78
2023/12/20 03:09:06;;;;;;;0.00;0.00;;;;;;;5.55;100.00;101018.69;4868920;29;20384;-78
2023/12/20 03:11:31;;;;;;;0.00;0.00;;;;;;;5.61;100.00;101023.25;4869901;29;20034;-77
2023/12/20 03:13:57;;;;;;;0.00;0.00;;;;;;;5.65;100.00;101024.47;4870350;29;20033;-78
2023/12/20 03:16:32;;;;;;;0.05;0.05;;;;;;;5.68;100.00;101029.47;4876929;29;20033;-78
2023/12/20 03:19:01;;;;;;;0.00;0.00;;;;;;;5.73;100.00;101037.78;4883031;29;20105;-78
2023/12/20 03:21:26;;;;;;;0.03;0.03;;;;;;;5.81;100.00;101035.84;4856455;29;20024;-78
2023/12/20 03:23:52;;;;;;;0.10;0.10;;;;;;;5.65;100.00;101015.50;4883242;29;20393;-78
2023/12/20 03:26:25;;;;;;;0.00;0.00;;;;;;;5.63;100.00;101023.03;4877797;29;20652;-78
2023/12/20 03:29:50;;;;;;;;;;;;;;;;;;;;;
2023/12/20 03:32:36;;;;;;;0.00;0.00;;;;;;;5.97;100.00;101050.78;4874062;29;20391;-79
2023/12/20 03:35:02;;;;;;;0.10;0.10;;;;;;;5.82;100.00;100996.81;4870907;29;20100;-78
2023/12/20 03:38:00;;;;;;;0.00;0.00;;;;;;;6.07;100.00;101032.13;4860379;29;20025;-78
2023/12/20 03:41:11;;;;;;;0.00;0.00;;;;;;;6.20;100.00;101031.19;4872875;29;20033;-79
2023/12/20 03:43:37;;;;;;;0.10;0.10;;;;;;;6.18;100.00;101011.59;4869720;29;20029;-78
2023/12/20 03:46:03;;;;;;;0.00;0.00;;;;;;;6.19;100.00;101019.50;4893968;29;20051;-78
2023/12/20 03:48:32;;;;;;;0.00;0.00;;;;;;;6.14;100.00;100991.34;4869453;29;20029;-78
2023/12/20 03:51:02;;;;;;;0.00;0.00;;;;;;;6.13;100.00;101003.25;4886519;29;20044;-78
2023/12/20 03:53:28;;;;;;;0.00;0.00;;;;;;;6.32;100.00;101040.28;4846478;29;20050;-78
2023/12/20 03:56:01;;;;;;;0.00;0.00;;;;;;;6.29;100.00;101051.59;4857282;29;20032;-78
2023/12/20 03:58:36;;;;;;;0.00;0.00;;;;;;;6.21;100.00;101041.84;4849975;29;20109;-78
2023/12/20 04:01:02;;;;;;;0.00;0.00;;;;;;;6.13;100.00;101042.09;4888374;29;20388;-79
2023/12/20 04:03:28;;;;;;;0.00;0.00;;;;;;;6.15;100.00;101050.03;4852374;29;20412;-76
2023/12/20 04:05:53;;;;;;;0.00;0.00;;;;;;;6.01;100.00;101033.84;4836349;29;20155;-79
2023/12/20 04:08:52;;;;;;;;;;;;;;;;;;;;;
2023/12/20 04:12:12;;;;;;;;;;;;;;;;;;;;;
2023/12/20 04:17:53;;;;;;;;;;;;;;;;;;;;;
2023/12/20 04:21:08;;;;;;;;;;;;;;;;;;;;;
2023/12/20 04:23:28;;;;;;;0.00;0.00;;;;;;;6.01;100.00;101027.59;4836198;29;20473;-78
2023/12/20 04:25:54;;;;;;;0.00;0.00;;;;;;;5.70;100.00;100975.78;4818462;29;20029;-77
2023/12/20 04:28:30;;;;;;;0.00;0.00;;;;;;;6.04;100.00;101019.00;4844838;29;20047;-76
2023/12/20 04:30:56;;;;;;;0.00;0.00;;;;;;;5.99;100.00;101000.66;4878455;29;20115;-79
2023/12/20 04:33:29;;;;;;;0.00;0.00;;;;;;;5.94;100.00;100992.31;4887727;29;20042;-76
2023/12/20 04:35:57;;;;;;;0.00;0.00;;;;;;;5.95;100.00;101007.56;4873388;29;20492;-77
2023/12/20 04:38:25;;;;;;;0.00;0.00;;;;;;;6.00;100.00;101021.34;4846086;29;20032;-77
2023/12/20 04:40:53;;;;;;;0.00;0.00;;;;;;;6.03;100.00;101020.91;4863752;29;20048;-77
2023/12/20 04:43:21;;;;;;;0.00;0.00;;;;;;;5.93;100.00;101004.25;4841724;29;20038;-77
2023/12/20 04:45:52;;;;;;;0.00;0.00;;;;;;;5.93;100.00;101004.25;4877784;29;20080;-77
2023/12/20 04:48:17;;;;;;;0.00;0.00;;;;;;;6.08;100.00;101012.91;4867617;29;20269;-75
2023/12/20 04:50:42;;;;;;;0.00;0.00;;;;;;;6.15;100.00;101018.28;4849581;29;20848;-76
2023/12/20 04:53:08;;;;;;;0.00;0.00;;;;;;;6.17;100.00;101015.34;4861501;29;20077;-77
2023/12/20 04:55:33;;;;;;;0.00;0.00;;;;;;;6.25;100.00;101024.06;4851239;29;20068;-77
2023/12/20 04:57:59;;;;;;;0.00;0.00;;;;;;;6.28;100.00;101017.34;4865280;29;20029;-78
2023/12/20 05:00:24;;;;;;;0.00;0.00;;;;;;;6.50;100.00;101027.78;4853702;29;20093;-79
2023/12/20 05:02:50;;;;;;;0.00;0.00;;;;;;;6.60;100.00;101019.94;4861370;29;20671;-78
2023/12/20 05:05:17;;;;;;;0.00;0.00;;;;;;;6.58;100.00;101003.84;4872105;29;20461;-77
2023/12/20 05:07:43;;;;;;;0.00;0.00;;;;;;;6.91;100.00;101040.75;4863101;29;20033;-77
2023/12/20 05:10:09;;;;;;;0.00;0.00;;;;;;;6.79;100.00;101010.75;4856452;29;20725;-78
2023/12/20 05:12:34;;;;;;;0.00;0.00;;;;;;;6.89;100.00;101017.53;4877348;29;20487;-78
2023/12/20 05:15:00;;;;;;;0.00;0.00;;;;;;;6.96;100.00;101013.69;4850162;29;20121;-77
2023/12/20 05:17:29;;;;;;;0.00;0.00;;;;;;;6.95;100.00;101017.47;4863099;29;20021;-77
2023/12/20 05:20:06;;;;;;;0.00;0.00;;;;;;;7.22;100.00;101054.41;4876143;29;20037;-77
2023/12/20 05:22:34;;;;;;;0.00;0.00;;;;;;;7.28;100.00;101053.47;4868023;29;20547;-77
2023/12/20 05:24:59;;;;;;;0.00;0.00;;;;;;;7.11;100.00;101020.63;4868588;29;20484;-77
2023/12/20 05:27:24;;;;;;;0.00;0.00;;;;;;;7.25;100.00;101027.56;4859773;29;20046;-76
2023/12/20 05:29:57;;;;;;;0.00;0.00;;;;;;;7.27;100.00;101024.59;4857587;29;20088;-77
2023/12/20 05:32:23;;;;;;;0.00;0.00;;;;;;;7.19;100.00;100998.56;4866805;29;20021;-76
2023/12/20 05:34:48;;;;;;;0.05;0.05;;;;;;;7.46;100.00;101020.81;4866403;29;20070;-77
2023/12/20 05:37:16;;;;;;;0.00;0.00;;;;;;;7.36;100.00;100990.59;4875013;29;20121;-77
2023/12/20 05:39:41;;;;;;;0.10;0.10;;;;;;;7.31;100.00;100979.56;4858103;29;20156;-76
2023/12/20 05:42:14;;;;;;;0.00;0.00;;;;;;;7.32;100.00;100967.63;4879058;29;20128;-78
2023/12/20 05:44:40;;;;;;;0.00;0.00;;;;;;;7.34;100.00;100960.91;4849136;29;20039;-79
2023/12/20 05:47:05;;;;;;;0.10;0.10;;;;;;;7.38;100.00;100976.75;4878209;29;20037;-78
2023/12/20 05:49:36;;;;;;;0.00;0.00;;;;;;;7.28;100.00;100986.28;4863153;29;20093;-78
2023/12/20 05:52:04;;;;;;;0.00;0.00;;;;;;;6.84;100.00;100933.13;4867661;29;20533;-78
2023/12/20 05:54:30;;;;;;;0.00;0.00;;;;;;;6.94;100.00;100964.16;4877422;29;20053;-77
2023/12/20 05:57:14;;;;;;;;;;;;;;;;;;;;;
2023/12/20 05:59:40;;;;;;;0.00;0.00;;;;;;;6.66;100.00;100953.84;4866491;29;20029;-77
2023/12/20 06:02:08;;;;;;;0.00;0.00;;;;;;;6.60;100.00;100950.13;4889873;29;20119;-76
2023/12/20 06:04:34;;;;;;;0.00;0.00;;;;;;;6.68;100.00;100950.88;4874520;29;20432;-77
2023/12/20 06:07:01;;;;;;;0.10;0.10;;;;;;;6.72;100.00;100952.09;4851339;29;20025;-77
2023/12/20 06:09:40;;;;;;;0.00;0.00;;;;;;;6.91;100.00;100982.81;4871639;29;20029;-77
2023/12/20 06:12:08;;;;;;;0.00;0.00;;;;;;;6.72;100.00;100935.78;4848850;29;20037;-77
2023/12/20 06:14:33;;;;;;;0.00;0.00;;;;;;;6.92;100.00;100947.25;4867050;29;20017;-78
2023/12/20 06:17:07;;;;;;;0.00;0.00;;;;;;;6.91;100.00;100944.75;4856015;29;20385;-77
2023/12/20 06:19:48;;;;;;;0.00;0.00;;;;;;;6.78;100.00;100913.94;4852073;29;20037;-78
2023/12/20 06:22:13;;;;;;;0.00;0.00;;;;;;;6.88;100.00;100939.75;4871945;29;20033;-78
2023/12/20 06:24:39;;;;;;;0.00;0.00;;;;;;;6.91;100.00;100961.88;4852388;29;20374;-77
2023/12/20 06:27:04;;;;;;;0.00;0.00;;;;;;;7.03;100.00;100978.25;4872605;29;20021;-77
2023/12/20 06:29:34;;;;;;;0.10;0.10;;;;;;;6.94;100.00;100976.91;4864197;29;20036;-78
2023/12/20 06:32:59;;;;;;;0.00;0.00;;;;;;;6.86;100.00;100944.59;4874436;29;20029;-78
2023/12/20 06:35:24;;;;;;;0.00;0.00;;;;;;;6.98;100.00;100959.09;4864174;29;20039;-77
2023/12/20 06:37:50;;;;;;;0.10;0.10;;;;;;;7.01;100.00;100966.78;4870566;29;20072;-77
2023/12/20 06:40:16;;;;;;;0.00;0.00;;;;;;;7.01;100.00;100983.09;4851367;29;20029;-77
2023/12/20 06:43:07;;;;;;;;;;;;;;;;;;;;;
2023/12/20 06:45:33;;;;;;;0.10;0.10;;;;;;;7.08;100.00;100983.84;4868434;29;20029;-76
2023/12/20 06:48:01;;;;;;;0.00;0.00;;;;;;;6.98;100.00;100969.97;4869924;29;20040;-78
2023/12/20 06:50:39;;;;;;;0.00;0.00;;;;;;;6.99;100.00;100955.28;4860460;29;20113;-76
2023/12/20 06:53:10;;;;;;;0.00;0.00;;;;;;;7.09;100.00;100963.75;4859178;29;20050;-77
2023/12/20 06:59:38;;;;;;;0.00;0.00;;;;;;;6.97;100.00;100952.81;4828171;29;20125;-77
2023/12/20 07:02:13;;;;;;;0.00;0.00;;;;;;;6.98;100.00;100956.38;4882057;29;20033;-80
2023/12/20 07:32:25;;;;;;;0.00;0.00;;;;;;;7.04;100.00;100879.31;4796674;29;20114;-76
2023/12/20 07:34:50;;;;;;;0.00;0.00;;;;;;;7.04;100.00;100860.28;4784588;29;20031;-77
2023/12/20 07:41:17;;;;;;;0.00;0.00;;;;;;;7.38;100.00;100908.75;4764696;30;20054;-78
2023/12/20 07:43:59;;;;;;;;;;;;;;;;;;;;;
2023/12/20 07:46:43;;;;;;;0.00;0.00;;;;;;;7.30;100.00;100909.88;4804307;29;20046;-79
2023/12/20 08:03:05;;;;;;;0.10;0.10;;;;;;;6.51;100.00;100880.00;4854173;29;20124;-77
2023/12/20 08:05:38;;;;;;;0.00;0.00;;;;;;;6.86;100.00;100925.56;4847848;29;20033;-80
2023/12/20 08:08:47;;;;;;;0.00;0.00;;;;;;;7.14;100.00;100939.41;4842140;29;20611;-77
2023/12/20 08:11:13;;;;;;;0.00;0.00;;;;;;;6.98;100.00;100908.25;4862932;29;20146;-76
2023/12/20 08:13:40;;;;;;;0.00;0.00;;;;;;;7.23;100.00;100950.81;4882577;29;20116;-77
2023/12/20 08:16:06;;;;;;;0.00;0.00;;;;;;;7.37;100.00;100973.19;4874686;29;20064;-76
2023/12/20 08:18:50;;;;;;;0.00;0.00;;;;;;;7.23;100.00;100936.34;4865078;29;20025;-77
2023/12/20 08:22:01;;;;;;;0.00;0.00;;;;;;;7.24;100.00;100935.28;4882667;29;20117;-77
2023/12/20 08:24:27;;;;;;;0.00;0.00;;;;;;;7.45;100.00;100977.50;4865794;29;20124;-77
2023/12/20 08:26:52;;;;;;;0.00;0.00;;;;;;;7.43;100.00;100980.44;4885093;29;20112;-76
2023/12/20 08:29:18;;;;;;;0.00;0.00;;;;;;;7.63;100.00;100996.47;4864659;29;20040;-77
2023/12/20 08:31:51;;;;;;;0.00;0.00;;;;;;;7.63;100.00;100973.88;4875125;29;20837;-77
2023/12/20 08:34:16;;;;;;;0.00;0.00;;;;;;;7.75;100.00;101001.13;4867162;29;20036;-76
2023/12/20 08:36:59;;;;;;;0.00;0.00;;;;;;;7.69;100.00;100968.34;4864856;29;20034;-76
2023/12/20 08:39:43;;;;;;;0.00;0.00;;;;;;;7.82;100.00;101002.66;4876141;29;20033;-76
2023/12/20 08:42:11;;;;;;;0.00;0.00;;;;;;;7.59;100.00;100923.69;4870734;29;20063;-77
2023/12/20 08:44:37;;;;;;;0.00;0.00;;;;;;;7.93;100.00;100972.97;4884723;29;20049;-77
2023/12/20 08:47:13;;;;;;;;;;;;;;;;;;;;;
2023/12/20 08:49:39;;;;;;;0.00;0.00;;;;;;;7.53;100.00;100943.66;4870272;29;20419;-77
2023/12/20 08:52:33;;;;;;;;;;;;;;;;;;;;;
2023/12/20 08:55:09;;;;;;;0.10;0.10;;;;;;;7.49;100.00;100929.69;4867628;29;20037;-76
2023/12/20 08:57:42;;;;;;;0.00;0.00;;;;;;;7.58;100.00;100941.91;4867747;29;20032;-77
2023/12/20 09:00:24;;;;;;;0.00;0.00;;;;;;;7.85;100.00;100982.31;4864500;29;20150;-78
2023/12/20 09:02:49;;;;;;;0.00;0.00;;;;;;;7.96;100.00;100967.06;4880127;29;20121;-79
2023/12/20 09:05:17;;;;;;;0.00;0.00;;;;;;;7.79;100.00;100921.47;4876296;29;20057;-78
2023/12/20 09:08:13;;;;;;;;;;;;;;;;;;;;;
2023/12/20 09:11:00;;;;;;;0.00;0.00;;;;;;;8.21;100.00;100956.75;4865913;29;20114;-78
2023/12/20 09:13:28;;;;;;;0.00;0.00;;;;;;;8.32;100.00;100940.66;4879455;29;20030;-78
2023/12/20 09:16:15;;;;;;;0.00;0.00;;;;;;;8.49;100.00;100938.88;4881666;29;20033;-78
2023/12/20 09:18:44;;;;;;;0.00;0.00;;;;;;;8.80;100.00;100955.06;4861373;29;20029;-78
2023/12/20 09:21:10;;;;;;;0.00;0.00;;;;;;;8.91;100.00;100925.03;4882875;29;20032;-77
2023/12/20 09:23:36;;;;;;;0.00;0.00;;;;;;;9.35;99.45;100953.69;4871911;29;20037;-78
2023/12/20 09:26:12;;;;;;;;;;;;;;;;;;;;;
2023/12/20 09:29:27;;;;;;;0.00;0.00;;;;;;;9.44;96.38;100944.81;4871167;29;20025;-77
2023/12/20 09:32:04;;;;;;;;;;;;;;;;;;;;;
2023/12/20 09:34:30;;;;;;;0.00;0.00;;;;;;;9.40;98.83;100957.34;4862530;29;20027;-78
2023/12/20 09:36:58;;;;;;;0.00;0.00;;;;;;;9.18;99.18;100946.25;4870571;29;20115;-77
2023/12/20 09:39:25;;;;;;;0.00;0.00;;;;;;;8.96;100.00;100915.28;4879508;29;20068;-78
2023/12/20 09:42:50;;;;;;;0.00;0.00;;;;;;;9.26;100.00;100964.97;4858931;29;20031;-77
2023/12/20 09:45:23;;;;;;;0.00;0.00;;;;;;;9.26;100.00;100929.50;4848515;29;20068;-76
2023/12/20 09:47:54;;;;;;;0.00;0.00;;;;;;;9.48;97.03;100922.53;4874604;29;20081;-77
2023/12/20 09:50:33;;;;;;;0.00;0.00;;;;;;;9.77;95.20;100932.28;4883119;29;20041;-78
2023/12/20 09:53:31;;;;;;;0.00;0.00;;;;;;;10.69;89.92;100948.41;4859575;29;20033;-78
2023/12/20 09:55:53;;;;;;;0.00;0.00;;;;;;;11.97;85.56;100954.41;4865160;29;20056;-77
2023/12/20 09:58:48;;;;;;;;;;;;;;;;;;;;;
2023/12/20 10:01:18;;;;;;;0.10;0.10;;;;;;;12.70;75.30;100937.28;4866309;29;20697;-76
2023/12/20 10:03:44;;;;;;;0.00;0.00;;;;;;;12.01;77.24;100960.97;4870932;29;20034;-77
2023/12/20 10:06:22;;;;;;;0.00;0.00;;;;;;;11.61;79.18;100947.75;4869832;29;20028;-77
2023/12/20 10:09:03;;;;;;;;;;;;;;;;;;;;;
2023/12/20 10:14:20;;;;;;;0.00;0.00;;;;;;;11.95;80.31;100994.94;4866640;29;20033;-79
2023/12/20 10:16:51;;;;;;;0.00;0.00;;;;;;;11.82;79.46;100970.69;4861765;29;20116;-78
2023/12/20 10:19:55;;;;;;;0.00;0.00;;;;;;;11.56;81.55;101017.00;4879652;29;20043;-77
2023/12/20 10:22:53;;;;;;;;;;;;;;;;;;;;;
2023/12/20 10:26:18;;;;;;;0.00;0.00;;;;;;;10.63;86.43;101004.94;4882706;29;20515;-77
2023/12/20 10:29:04;;;;;;;0.00;0.00;;;;;;;10.34;88.17;100995.22;4861907;29;20101;-78
2023/12/20 10:32:40;;;;;;;;;;;;;;;;;;;;;
2023/12/20 10:35:22;;;;;;;;;;;;;;;;;;;;;
2023/12/20 10:38:28;;;;;;;;;;;;;;;;;;;;;
2023/12/20 10:42:06;;;;;;;;;;;;;;;;;;;;;
2023/12/20 10:48:41;;;;;;;0.00;0.00;;;;;;;9.54;92.43;100937.91;4863201;29;20496;-78
2023/12/20 10:51:59;;;;;;;;;;;;;;;;;;;;;
2023/12/20 11:15:19;;;;;;;;;;;;;;;;;;;;;
2023/12/20 11:21:23;;;;;;;0.00;0.00;;;;;;;11.03;87.61;100925.56;4788432;29;20031;-78
2023/12/20 11:24:44;;;;;;;;;;;;;;;;;;;;;
2023/12/20 11:27:32;;;;;;;0.00;0.00;;;;;;;10.47;88.46;100858.97;4849792;29;20040;-78
2023/12/20 11:30:34;;;;;;;0.00;0.00;;;;;;;10.72;88.64;100898.66;4824057;29;20091;-77
2023/12/20 11:32:59;;;;;;;0.00;0.00;;;;;;;10.47;87.92;100855.44;4848332;29;20439;-76
2023/12/20 11:35:27;;;;;;;0.00;0.00;;;;;;;10.55;88.19;100849.50;4850303;29;20040;-78
2023/12/20 11:38:51;;;;;;;0.00;0.00;;;;;;;10.59;87.79;100850.63;4876213;29;20035;-81
2023/12/20 11:48:24;;;;;;;0.00;0.00;;;;;;;9.60;96.99;100825.78;4864009;29;20041;-78
2023/12/20 11:52:05;;;;;;;;;;;;;;;;;;;;;
2023/12/20 11:54:52;;;;;;;0.00;0.00;;;;;;;9.81;99.53;100877.16;4820460;29;20041;-79
2023/12/20 12:00:52;;;;;;;0.00;0.00;;;;;;;9.76;97.13;100810.44;4849699;29;20061;-77
2023/12/20 12:03:43;;;;;;;0.00;0.00;;;;;;;9.68;97.49;100785.47;4853978;29;20120;-76
2023/12/20 12:06:19;;;;;;;;;;;;;;;;;;;;;
2023/12/20 12:08:58;;;;;;;;;;;;;;;;;;;;;
2023/12/20 12:11:41;;;;;;;0.00;0.00;;;;;;;9.63;96.11;100777.22;4865203;29;20036;-76
2023/12/20 12:14:07;;;;;;;0.00;0.00;;;;;;;9.66;96.55;100768.53;4868869;29;20416;-77
2023/12/20 12:16:45;;;;;;;;;;;;;;;;;;;;;
2023/12/20 12:19:43;;;;;;;0.00;0.00;;;;;;;9.74;99.22;100763.47;4871099;29;20017;-76
2023/12/20 12:22:39;;;;;;;0.00;0.00;;;;;;;9.59;100.00;100755.03;4823349;29;20040;-77
2023/12/20 12:25:36;;;;;;;;;;;;;;;;;;;;;
2023/12/20 12:28:33;;;;;;;0.10;0.10;;;;;;;9.55;99.74;100749.28;4801533;29;20038;-79
2023/12/20 12:30:59;;;;;;;0.00;0.00;;;;;;;9.63;99.52;100767.13;4825788;29;20042;-76
2023/12/20 12:34:28;;;;;;;;;;;;;;;;;;;;;
2023/12/20 12:37:51;;;;;;;;;;;;;;;;;;;;;
2023/12/20 12:41:05;;;;;;;;;;;;;;;;;;;;;
2023/12/20 12:44:08;;;;;;;0.00;0.00;;;;;;;9.29;100.00;100718.06;4862118;29;20387;-77
2023/12/20 12:46:34;;;;;;;0.08;0.08;;;;;;;9.37;99.07;100700.41;4866609;29;20032;-77
2023/12/20 13:56:36;;;;;;;0.00;0.00;;;;;;;9.61;99.99;100649.16;4812471;29;20054;-76
2023/12/20 13:59:01;;;;;;;0.00;0.00;;;;;;;9.72;98.32;100633.72;4821355;29;20360;-75
2023/12/20 14:01:30;;;;;;;0.00;0.00;;;;;;;9.86;97.63;100656.81;4818955;29;20034;-77
2023/12/20 14:11:11;;;;;;;0.00;0.00;;;;;;;9.90;93.86;100619.72;4789335;29;20042;-78
2023/12/20 14:15:00;;;;;;;0.00;0.00;;;;;;;9.95;93.70;100617.03;4798385;29;20035;-77
2023/12/20 14:21:10;;;;;;;0.00;0.00;;;;;;;9.96;92.50;100594.09;4792505;29;20169;-78
2023/12/20 14:27:49;;;;;;;0.10;0.10;;;;;;;9.75;93.34;100564.91;4776792;29;20043;-78
2023/12/20 14:34:06;;;;;;;0.00;0.00;;;;;;;9.14;100.00;100584.97;4805208;29;19920;-77
2023/12/20 14:37:11;;;;;;;0.00;0.00;;;;;;;9.12;100.00;100564.47;4785683;29;20399;-78
2023/12/20 14:42:56;;;;;;;0.00;0.00;;;;;;;9.05;100.00;100551.00;4816244;29;20501;-77
2023/12/20 14:45:53;;;;;;;0.00;0.00;;;;;;;9.29;100.00;100602.59;4834869;29;20045;-78
2023/12/20 14:49:07;;;;;;;0.00;0.00;;;;;;;9.21;100.00;100598.41;4827136;29;20049;-78
2023/12/20 14:51:41;;;;;;;0.10;0.10;;;;;;;9.09;100.00;100601.25;4825977;29;20367;-78
2023/12/20 14:54:37;;;;;;;0.00;0.00;;;;;;;9.04;100.00;100612.91;4824240;29;20034;-78
2023/12/20 14:57:08;;;;;;;0.00;0.00;;;;;;;8.62;100.00;100547.94;4809761;29;20068;-76
2023/12/20 15:00:04;;;;;;;0.00;0.00;;;;;;;8.66;100.00;100572.81;4815826;29;20038;-78
2023/12/20 15:02:41;;;;;;;;;;;;;;;;;;;;;
2023/12/20 15:05:38;;;;;;;0.00;0.00;;;;;;;8.71;100.00;100597.44;4811349;29;20022;-77
2023/12/20 15:08:06;;;;;;;0.00;0.00;;;;;;;8.64;100.00;100591.31;4824495;29;20125;-77
2023/12/20 15:11:03;;;;;;;0.00;0.00;;;;;;;8.70;100.00;100606.69;4820141;29;20099;-77
2023/12/20 15:13:39;;;;;;;0.00;0.00;;;;;;;8.59;100.00;100564.00;4817644;29;20391;-79
2023/12/20 15:16:05;;;;;;;0.00;0.00;;;;;;;8.50;100.00;100558.97;4826369;29;20069;-77
2023/12/20 15:18:59;;;;;;;0.00;0.00;;;;;;;8.42;100.00;100553.88;4831552;29;20027;-78
2023/12/20 15:22:26;;;;;;;0.00;0.00;;;;;;;8.36;100.00;100542.06;4810006;29;20083;-78
2023/12/20 15:24:55;;;;;;;;;;;;;;;8.59;100.00;100610.34;4813967;29;20030;-76
2023/12/20 15:28:18;;;;;;;0.00;0.00;;;;;;;8.42;100.00;100583.03;4829582;29;20368;-78
2023/12/20 15:30:56;;;;;;;;;;;;;;;;;;;;;
2023/12/20 15:33:33;;;;;;;0.10;0.10;;;;;;;8.50;100.00;100597.13;4812304;29;20504;-78
2023/12/20 15:37:05;;;;;;;0.00;0.00;;;;;;;8.56;100.00;100579.75;4819251;29;20100;-77
2023/12/20 15:40:09;;;;;;;0.00;0.00;;;;;;;8.51;100.00;100593.31;4803954;29;20111;-78
2023/12/20 15:42:36;;;;;;;0.00;0.00;;;;;;;8.10;100.00;100527.22;4809899;29;20556;-79
2023/12/20 15:45:12;;;;;;;0.00;0.00;;;;;;;8.23;100.00;100579.72;4833148;29;20385;-77
2023/12/20 15:47:50;;;;;;;;;;;;;;;;;;;;;
2023/12/20 15:50:18;;;;;;;0.00;0.00;;;;;;;8.39;100.00;100592.53;4812185;29;20030;-77
2023/12/20 15:52:51;;;;;;;0.10;0.10;;;;;;;8.41;100.00;100582.22;4791355;29;20039;-78
2023/12/20 15:55:16;;;;;;;0.00;0.00;;;;;;;8.31;100.00;100554.78;4808680;29;20033;-77
2023/12/20 15:57:44;;;;;;;0.00;0.00;;;;;;;8.29;100.00;100552.31;4823260;29;20054;-76
2023/12/20 16:00:13;;;;;;;0.00;0.00;;;;;;;8.31;100.00;100550.19;4813703;29;20030;-77
2023/12/20 16:02:44;;;;;;;0.00;0.00;;;;;;;8.67;100.00;100585.38;4821749;29;20042;-78
2023/12/20 16:05:12;;;;;;;0.00;0.00;;;;;;;8.38;100.00;100560.91;4832829;29;20091;-78
2023/12/20 16:08:00;;;;;;;0.00;0.00;;;;;;;8.35;100.00;100534.16;4821892;29;20125;-77
2023/12/20 16:10:35;;;;;;;0.00;0.00;;;;;;;8.47;100.00;100564.91;4790805;29;20057;-77
2023/12/20 16:13:54;;;;;;;;;;;;;;;;;;;;;
2023/12/20 16:16:14;;;;;;;0.00;0.00;;;;;;;8.35;100.00;100515.91;4802175;29;20039;-78
2023/12/20 16:18:51;;;;;;;0.00;0.00;;;;;;;8.62;100.00;100545.22;4827502;29;20030;-77